KMWO/MWO METAR and TAF weather

Enter ICAO airport designator
Station Type Date Time Source
KMWO METAR 2022/01/29 01:55 UTC NOAA

KMWO 290155Z AUTO 03008KT 10SM BKN031 OVC100 M09/M12 A3025 RMK AO2 T10911122


Station Type Date Time Source
KMWO Decoded METAR 2022/01/29 01:55 UTC NOAA

Station name not available
Jan 28, 2022 - 08:55 PM EST / 2022.01.29 0155 UTC
Wind: from the NNE (030 degrees) at 9 MPH (8 KT):0
Visibility: 10 mile(s):0
Sky conditions: overcast
Temperature: 15.6 F (-9.1 C)
Windchill: 5 F (-15 C):1
Dew Point: 10.0 F (-12.2 C)
Relative Humidity: 78%
Pressure (altimeter): 30.25 in. Hg (1024 hPa)
ob: KMWO 290155Z AUTO 03008KT 10SM BKN031 OVC100 M09/M12 A3025 RMK AO2 T10911122
cycle: 2

Station Type Date Time Source
KMWO TAF UTC NOAA

Error!

Example: see airport list